createdAt,value
2022-11-11T00:01:47.484Z,100.00
2022-11-11T00:04:16.712Z,100.00
2022-11-11T00:06:47.789Z,100.00
2022-11-11T00:09:15.808Z,100.00
2022-11-11T00:11:46.128Z,100.00
2022-11-11T00:14:16.228Z,100.00
2022-11-11T00:17:02.760Z,100.00
2022-11-11T00:19:55.554Z,100.00
2022-11-11T00:22:43.011Z,100.00
2022-11-11T00:25:11.282Z,100.00
2022-11-11T00:27:45.618Z,100.00
2022-11-11T00:30:12.873Z,100.00
2022-11-11T00:32:47.046Z,100.00
2022-11-11T00:35:33.785Z,100.00
2022-11-11T00:38:32.699Z,100.00
2022-11-11T00:41:02.097Z,100.00
2022-11-11T00:43:29.782Z,100.00
2022-11-11T00:46:23.289Z,100.00
2022-11-11T00:49:14.668Z,100.00
2022-11-11T00:51:48.638Z,100.00
2022-11-11T00:54:26.603Z,100.00
2022-11-11T00:56:54.772Z,100.00
2022-11-11T00:59:21.917Z,100.00
2022-11-11T01:01:50.011Z,100.00
2022-11-11T01:04:17.143Z,100.00
2022-11-11T01:06:48.369Z,100.00
2022-11-11T01:09:15.451Z,100.00
2022-11-11T01:11:50.311Z,100.00
2022-11-11T01:14:24.208Z,100.00
2022-11-11T01:16:52.317Z,100.00
2022-11-11T01:19:21.456Z,100.00
2022-11-11T01:21:52.612Z,100.00
2022-11-11T01:24:21.948Z,100.00
2022-11-11T01:26:49.059Z,100.00
2022-11-11T01:29:17.250Z,100.00
2022-11-11T01:31:44.290Z,100.00
2022-11-11T01:34:11.788Z,100.00
2022-11-11T01:36:39.139Z,100.00
2022-11-11T01:39:07.375Z,100.00
2022-11-11T01:41:39.237Z,100.00
2022-11-11T01:44:17.656Z,100.00
2022-11-11T01:47:04.916Z,100.00
2022-11-11T01:49:58.022Z,100.00
2022-11-11T01:52:35.891Z,100.00
2022-11-11T01:55:26.035Z,100.00
2022-11-11T01:57:59.519Z,100.00
2022-11-11T02:00:39.700Z,100.00
2022-11-11T02:03:15.564Z,100.00
2022-11-11T02:05:58.165Z,100.00
2022-11-11T02:08:37.121Z,100.00
2022-11-11T02:11:44.500Z,100.00
2022-11-11T02:14:33.095Z,100.00
2022-11-11T02:17:05.643Z,100.00
2022-11-11T02:19:49.003Z,100.00
2022-11-11T02:22:35.210Z,100.00
2022-11-11T02:25:05.285Z,100.00
2022-11-11T02:27:42.906Z,100.00
2022-11-11T02:30:15.908Z,100.00
2022-11-11T02:32:48.304Z,100.00
2022-11-11T02:35:18.871Z,100.00
2022-11-11T02:37:52.397Z,100.00
2022-11-11T02:40:29.262Z,100.00
2022-11-11T02:43:00.390Z,100.00
2022-11-11T02:45:36.041Z,100.00
2022-11-11T02:48:13.209Z,100.00
2022-11-11T02:50:41.384Z,100.00
2022-11-11T02:53:10.631Z,100.00
2022-11-11T02:55:44.620Z,100.00
2022-11-11T02:58:21.900Z,100.00
2022-11-11T03:00:49.123Z,100.00
2022-11-11T03:03:16.206Z,100.00
2022-11-11T03:05:53.689Z,100.00
2022-11-11T03:08:31.763Z,100.00
2022-11-11T03:11:04.113Z,100.00
2022-11-11T03:13:32.109Z,100.00
2022-11-11T03:16:02.053Z,100.00
2022-11-11T03:18:29.106Z,100.00
2022-11-11T03:21:54.405Z,100.00
2022-11-11T03:23:54.048Z,100.00
2022-11-11T03:26:21.503Z,100.00
2022-11-11T03:28:51.142Z,100.00
2022-11-11T03:31:32.455Z,100.00
2022-11-11T03:34:19.004Z,100.00
2022-11-11T03:37:05.809Z,100.00
2022-11-11T03:39:51.743Z,100.00
2022-11-11T03:42:18.812Z,100.00
2022-11-11T03:44:50.955Z,100.00
2022-11-11T03:47:31.345Z,100.00
2022-11-11T03:49:58.443Z,100.00
2022-11-11T03:52:28.543Z,100.00
2022-11-11T03:54:56.546Z,100.00
2022-11-11T03:57:33.813Z,100.00
2022-11-11T04:00:02.858Z,100.00
2022-11-11T04:02:52.364Z,100.00
2022-11-11T04:05:39.049Z,100.00
2022-11-11T04:09:01.640Z,100.00
2022-11-11T04:11:33.865Z,100.00
2022-11-11T04:14:33.524Z,100.00
2022-11-11T04:17:07.493Z,100.00
2022-11-11T04:20:01.994Z,100.00
2022-11-11T04:22:42.384Z,100.00
2022-11-11T04:25:41.619Z,100.00
2022-11-11T04:28:27.345Z,100.00
2022-11-11T04:30:54.344Z,100.00
2022-11-11T04:33:26.669Z,100.00
2022-11-11T04:35:59.891Z,100.00
2022-11-11T04:38:46.229Z,100.00
2022-11-11T04:41:21.174Z,100.00
2022-11-11T04:44:08.713Z,100.00
2022-11-11T04:46:45.600Z,100.00
2022-11-11T04:49:12.680Z,100.00
2022-11-11T04:51:58.169Z,100.00
2022-11-11T04:54:54.145Z,100.00
2022-11-11T04:57:23.154Z,100.00
2022-11-11T04:59:50.243Z,100.00
2022-11-11T05:02:36.821Z,100.00
2022-11-11T05:05:09.704Z,100.00
2022-11-11T05:08:02.162Z,100.00
2022-11-11T05:10:35.234Z,100.00
2022-11-11T05:13:26.876Z,100.00
2022-11-11T05:16:27.145Z,100.00
2022-11-11T05:19:18.446Z,100.00
2022-11-11T05:21:46.766Z,100.00
2022-11-11T05:24:39.225Z,100.00
2022-11-11T05:27:07.229Z,100.00
2022-11-11T05:29:34.295Z,100.00
2022-11-11T05:32:09.839Z,100.00
2022-11-11T05:34:36.881Z,100.00
2022-11-11T05:37:05.964Z,100.00
2022-11-11T05:39:32.985Z,100.00
2022-11-11T05:42:11.443Z,100.00
2022-11-11T05:44:38.909Z,100.00
2022-11-11T05:47:21.106Z,100.00
2022-11-11T05:49:48.150Z,100.00
2022-11-11T05:52:17.431Z,100.00
2022-11-11T05:54:46.366Z,100.00
2022-11-11T05:57:21.665Z,100.00
2022-11-11T05:59:48.878Z,100.00
2022-11-11T06:02:21.708Z,100.00
2022-11-11T06:04:50.054Z,100.00
2022-11-11T06:07:19.232Z,100.00
2022-11-11T06:09:50.586Z,100.00
2022-11-11T06:12:18.739Z,100.00
2022-11-11T06:14:59.002Z,100.00
2022-11-11T06:17:27.989Z,100.00
2022-11-11T06:19:55.053Z,100.00
2022-11-11T06:22:57.423Z,100.00
2022-11-11T06:25:57.300Z,100.00
2022-11-11T06:31:21.135Z,100.00
2022-11-11T06:33:48.393Z,100.00
2022-11-11T06:36:24.622Z,100.00
2022-11-11T06:38:51.573Z,100.00
2022-11-11T06:41:19.292Z,100.00
2022-11-11T06:43:49.362Z,100.00
2022-11-11T06:46:26.210Z,100.00
2022-11-11T06:48:57.754Z,100.00
2022-11-11T06:51:24.811Z,100.00
2022-11-11T06:53:51.990Z,100.00
2022-11-11T06:56:28.164Z,100.00
2022-11-11T06:58:57.175Z,100.00
2022-11-11T07:01:33.521Z,100.00
2022-11-11T07:04:02.004Z,100.00
2022-11-11T07:06:29.077Z,100.00
2022-11-11T07:09:28.986Z,100.00
2022-11-11T07:11:57.049Z,100.00
2022-11-11T07:14:24.241Z,100.00
2022-11-11T07:16:52.226Z,100.00
2022-11-11T07:19:21.382Z,100.00
2022-11-11T07:21:50.565Z,100.00
2022-11-11T07:24:17.589Z,100.00
2022-11-11T07:26:45.667Z,100.00
2022-11-11T07:29:14.474Z,100.00
2022-11-11T07:31:42.268Z,100.00
2022-11-11T07:34:09.235Z,100.00
2022-11-11T07:36:37.244Z,100.00
2022-11-11T07:39:08.925Z,100.00
2022-11-11T07:41:37.221Z,100.00
2022-11-11T07:44:05.430Z,100.00
2022-11-11T07:46:33.665Z,100.00
2022-11-11T07:49:01.692Z,100.00
2022-11-11T07:51:28.724Z,100.00
2022-11-11T07:53:58.036Z,100.00
2022-11-11T07:56:25.060Z,100.00
2022-11-11T07:58:53.479Z,100.00
2022-11-11T08:01:22.670Z,100.00
2022-11-11T08:03:50.814Z,100.00
2022-11-11T08:06:22.684Z,100.00
2022-11-11T08:08:52.981Z,100.00
2022-11-11T08:11:44.113Z,100.00
2022-11-11T08:14:17.184Z,100.00
2022-11-11T08:16:45.231Z,100.00
2022-11-11T08:19:13.347Z,100.00
2022-11-11T08:21:44.529Z,100.00
2022-11-11T08:27:10.069Z,100.00
2022-11-11T08:29:37.211Z,100.00
2022-11-11T08:32:04.656Z,99.45
2022-11-11T08:34:31.969Z,99.33
2022-11-11T08:37:02.061Z,99.02
2022-11-11T08:39:29.327Z,96.33
2022-11-11T08:41:56.376Z,92.75
2022-11-11T08:44:24.573Z,89.56
2022-11-11T08:46:54.809Z,86.54
2022-11-11T08:49:23.097Z,84.54
2022-11-11T08:51:50.071Z,83.53
2022-11-11T08:54:17.065Z,82.25
2022-11-11T08:56:51.953Z,81.38
2022-11-11T08:59:25.041Z,81.88
2022-11-11T09:01:52.086Z,81.43
2022-11-11T09:07:10.788Z,81.34
2022-11-11T09:09:44.051Z,80.00
2022-11-11T09:12:11.132Z,77.10
2022-11-11T09:14:39.281Z,71.60
2022-11-11T09:17:07.386Z,70.43
2022-11-11T09:19:37.861Z,70.15
2022-11-11T09:22:05.345Z,70.01
2022-11-11T09:24:32.391Z,69.17
2022-11-11T09:26:59.389Z,67.99
2022-11-11T09:29:26.495Z,66.13
2022-11-11T09:31:53.544Z,66.71
2022-11-11T09:34:20.634Z,67.03
2022-11-11T09:36:50.781Z,67.92
2022-11-11T09:39:17.910Z,69.61
2022-11-11T09:41:46.068Z,70.81
2022-11-11T09:45:02.622Z,69.84
2022-11-11T09:47:44.639Z,71.10
2022-11-11T09:50:26.895Z,73.45
2022-11-11T09:53:09.942Z,73.77
2022-11-11T09:55:50.080Z,74.10
2022-11-11T09:58:24.397Z,74.89
2022-11-11T10:01:09.695Z,75.10
2022-11-11T10:03:47.124Z,76.78
2022-11-11T10:06:24.341Z,76.52
2022-11-11T10:09:07.839Z,77.88
2022-11-11T10:12:14.191Z,78.48
2022-11-11T10:14:47.360Z,77.58
2022-11-11T10:17:52.095Z,76.81
2022-11-11T10:20:43.454Z,76.02
2022-11-11T10:23:29.642Z,75.21
2022-11-11T10:26:02.940Z,75.22
2022-11-11T10:28:36.260Z,76.01
2022-11-11T10:31:16.040Z,76.71
2022-11-11T10:34:02.180Z,77.07
2022-11-11T10:36:37.254Z,74.82
2022-11-11T10:39:06.707Z,74.44
2022-11-11T10:42:01.882Z,72.72
2022-11-11T10:44:36.717Z,72.45
2022-11-11T10:47:13.710Z,72.92
2022-11-11T10:49:55.840Z,73.68
2022-11-11T10:52:35.958Z,72.47
2022-11-11T10:55:10.100Z,71.57
2022-11-11T10:57:45.463Z,71.80
2022-11-11T11:00:14.725Z,72.37
2022-11-11T11:03:00.002Z,71.38
2022-11-11T11:05:29.518Z,68.74
2022-11-11T11:08:02.980Z,67.29
2022-11-11T11:10:42.955Z,65.91
2022-11-11T11:13:28.560Z,66.84
2022-11-11T11:16:11.238Z,67.67
2022-11-11T11:18:43.091Z,66.99
2022-11-11T11:21:12.554Z,67.46
2022-11-11T11:23:43.348Z,69.16
2022-11-11T11:26:13.801Z,69.99
2022-11-11T11:28:58.868Z,71.45
2022-11-11T11:31:41.145Z,72.23
2022-11-11T11:34:09.242Z,73.15
2022-11-11T11:36:37.234Z,73.97
2022-11-11T11:39:07.431Z,74.67
2022-11-11T11:41:53.143Z,74.85
2022-11-11T11:44:34.199Z,75.32
2022-11-11T11:47:27.561Z,76.06
2022-11-11T11:50:14.482Z,76.60
2022-11-11T11:53:05.795Z,78.00
2022-11-11T11:56:20.579Z,79.08
2022-11-11T11:59:06.918Z,76.77
2022-11-11T12:01:41.374Z,77.92
2022-11-11T12:04:23.362Z,78.92
2022-11-11T12:07:32.532Z,79.13
2022-11-11T12:10:04.359Z,78.67
2022-11-11T12:12:59.375Z,78.75
2022-11-11T12:15:39.580Z,79.29
2022-11-11T12:18:59.440Z,79.32
2022-11-11T12:21:48.769Z,79.72
2022-11-11T12:24:25.882Z,78.96
2022-11-11T12:27:17.753Z,79.41
2022-11-11T12:29:54.495Z,79.19
2022-11-11T12:32:59.769Z,81.23
2022-11-11T12:35:49.331Z,79.78
2022-11-11T12:38:58.048Z,79.37
2022-11-11T12:41:47.887Z,80.27
2022-11-11T12:44:18.019Z,80.14
2022-11-11T12:47:03.603Z,79.87
2022-11-11T12:49:50.505Z,80.07
2022-11-11T12:52:59.146Z,79.61
2022-11-11T12:55:44.253Z,79.63
2022-11-11T12:58:45.029Z,80.97
2022-11-11T13:01:30.249Z,80.74
2022-11-11T13:04:10.267Z,81.81
2022-11-11T13:07:14.595Z,82.32
2022-11-11T13:09:51.949Z,82.13
2022-11-11T13:12:59.238Z,82.08
2022-11-11T13:15:27.846Z,82.75
2022-11-11T13:17:55.260Z,83.71
2022-11-11T13:21:06.596Z,82.55
2022-11-11T13:23:33.795Z,82.60
2022-11-11T13:26:12.650Z,81.46
2022-11-11T13:28:48.608Z,81.24
2022-11-11T13:31:29.770Z,79.90
2022-11-11T13:34:21.079Z,79.43
2022-11-11T13:36:54.978Z,79.01
2022-11-11T13:39:51.855Z,79.61
2022-11-11T13:42:29.305Z,79.46
2022-11-11T13:45:03.649Z,80.07
2022-11-11T13:47:37.496Z,79.41
2022-11-11T13:50:26.447Z,79.77
2022-11-11T13:53:05.715Z,79.17
2022-11-11T13:55:38.678Z,79.85
2022-11-11T13:58:07.118Z,79.79
2022-11-11T14:00:39.374Z,80.72
2022-11-11T14:03:18.702Z,80.35
2022-11-11T14:05:46.709Z,80.40
2022-11-11T14:08:50.874Z,80.44
2022-11-11T14:11:27.012Z,80.12
2022-11-11T14:14:33.184Z,80.40
2022-11-11T14:17:14.896Z,79.58
2022-11-11T14:19:44.990Z,79.83
2022-11-11T14:22:34.393Z,80.99
2022-11-11T14:25:35.530Z,81.48
2022-11-11T14:28:03.775Z,82.89
2022-11-11T14:30:41.203Z,82.64
2022-11-11T14:33:32.135Z,83.38
2022-11-11T14:36:22.904Z,84.40
2022-11-11T14:39:01.932Z,84.09
2022-11-11T14:41:58.471Z,83.80
2022-11-11T14:44:32.420Z,83.78
2022-11-11T14:47:42.669Z,83.84
2022-11-11T14:50:35.770Z,84.57
2022-11-11T14:53:18.203Z,85.46
2022-11-11T14:55:53.033Z,85.49
2022-11-11T14:58:27.265Z,85.48
2022-11-11T15:01:12.763Z,84.87
2022-11-11T15:03:50.345Z,85.40
2022-11-11T15:06:27.173Z,85.73
2022-11-11T15:09:28.194Z,86.51
2022-11-11T15:12:01.448Z,87.08
2022-11-11T15:14:57.520Z,87.35
2022-11-11T15:18:09.632Z,87.81
2022-11-11T15:21:03.726Z,88.44
2022-11-11T15:23:43.743Z,89.16
2022-11-11T15:26:29.156Z,89.51
2022-11-11T15:29:20.858Z,90.07
2022-11-11T15:31:51.671Z,90.74
2022-11-11T15:34:44.778Z,91.01
2022-11-11T15:37:22.295Z,91.51
2022-11-11T15:39:56.074Z,91.86
2022-11-11T15:42:32.370Z,91.91
2022-11-11T15:45:04.184Z,91.60
2022-11-11T15:47:36.823Z,91.44
2022-11-11T15:50:46.387Z,91.43
2022-11-11T15:53:24.586Z,91.66
2022-11-11T15:56:01.049Z,91.82
2022-11-11T15:58:32.405Z,91.66
2022-11-11T16:01:08.539Z,92.11
2022-11-11T16:03:45.687Z,92.00
2022-11-11T16:06:15.644Z,90.79
2022-11-11T16:08:49.360Z,90.35
2022-11-11T16:11:37.933Z,90.10
2022-11-11T16:14:08.588Z,90.38
2022-11-11T16:17:35.185Z,90.80
2022-11-11T16:20:04.983Z,90.70
2022-11-11T16:22:48.304Z,91.30
2022-11-11T16:25:22.463Z,91.41
2022-11-11T16:27:52.911Z,92.27
2022-11-11T16:30:46.506Z,92.94
2022-11-11T16:33:31.916Z,93.00
2022-11-11T16:36:18.395Z,92.40
2022-11-11T16:38:45.442Z,92.30
2022-11-11T16:41:34.987Z,93.04
2022-11-11T16:44:23.493Z,93.37
2022-11-11T16:46:59.766Z,93.16
2022-11-11T16:49:39.183Z,93.83
2022-11-11T16:52:25.508Z,95.54
2022-11-11T16:54:58.794Z,95.88
2022-11-11T16:57:37.072Z,95.24
2022-11-11T17:00:14.158Z,95.40
2022-11-11T17:10:16.170Z,93.57
2022-11-11T17:12:43.724Z,93.42
2022-11-11T17:15:17.915Z,92.44
2022-11-11T17:17:50.270Z,91.90
2022-11-11T17:20:22.064Z,91.13
2022-11-11T17:23:00.826Z,90.16
2022-11-11T17:25:27.968Z,89.56
2022-11-11T17:30:40.601Z,90.23
2022-11-11T17:33:08.043Z,91.05
2022-11-11T17:35:35.681Z,91.94
2022-11-11T17:38:06.345Z,91.92
2022-11-11T17:40:40.886Z,91.96
2022-11-11T17:46:55.638Z,90.97
2022-11-11T17:49:49.978Z,91.03
2022-11-11T17:52:13.158Z,91.51
2022-11-11T17:54:40.194Z,91.32
2022-11-11T17:57:08.186Z,91.21
2022-11-11T17:59:37.410Z,90.87
2022-11-11T18:02:07.906Z,90.41
2022-11-11T18:04:36.084Z,90.25
2022-11-11T18:07:48.501Z,89.95
2022-11-11T18:10:08.960Z,89.82
2022-11-11T18:13:09.675Z,89.60
2022-11-11T18:15:53.437Z,89.62
2022-11-11T18:18:22.841Z,89.94
2022-11-11T18:20:54.399Z,89.88
2022-11-11T18:27:13.305Z,89.91
2022-11-11T18:29:43.233Z,89.96
2022-11-11T18:32:15.725Z,90.17
2022-11-11T18:38:11.938Z,91.27
2022-11-11T18:45:23.581Z,93.64
2022-11-11T18:47:53.420Z,94.67
2022-11-11T18:50:23.105Z,94.98
2022-11-11T18:52:53.415Z,95.86
2022-11-11T18:55:33.844Z,96.41
2022-11-11T18:58:13.404Z,96.64
2022-11-11T19:00:46.048Z,96.30
2022-11-11T19:03:22.302Z,95.86
2022-11-11T19:05:53.968Z,95.61
2022-11-11T19:08:22.606Z,96.01
2022-11-11T19:10:54.784Z,95.84
2022-11-11T19:13:23.347Z,96.07
2022-11-11T19:15:52.180Z,96.31
2022-11-11T19:18:21.421Z,95.80
2022-11-11T19:20:49.193Z,95.61
2022-11-11T19:23:16.554Z,94.95
2022-11-11T19:25:44.695Z,94.60
2022-11-11T19:28:18.557Z,93.73
2022-11-11T19:30:50.226Z,93.63
2022-11-11T19:33:17.273Z,93.36
2022-11-11T19:35:44.533Z,92.51
2022-11-11T19:38:11.735Z,92.35
2022-11-11T19:40:38.872Z,91.75
2022-11-11T19:43:06.514Z,91.55
2022-11-11T19:45:36.894Z,91.00
2022-11-11T19:48:04.500Z,89.94
2022-11-11T19:50:31.571Z,89.54
2022-11-11T19:52:59.964Z,88.97
2022-11-11T19:55:31.180Z,87.94
2022-11-11T19:57:58.602Z,87.32
2022-11-11T20:00:30.883Z,86.94
2022-11-11T20:02:57.904Z,87.37
2022-11-11T20:05:25.361Z,88.06
2022-11-11T20:08:10.219Z,87.47
2022-11-11T20:10:42.260Z,87.57
2022-11-11T20:13:10.283Z,87.13
2022-11-11T20:15:37.691Z,86.99
2022-11-11T20:18:04.790Z,86.82
2022-11-11T20:20:31.892Z,86.74
2022-11-11T20:22:59.150Z,87.01
2022-11-11T20:25:26.577Z,87.09
2022-11-11T20:27:54.830Z,87.13
2022-11-11T20:30:24.030Z,86.91
2022-11-11T20:32:52.703Z,86.76
2022-11-11T20:35:21.252Z,86.57
2022-11-11T20:37:49.401Z,86.14
2022-11-11T20:40:21.014Z,85.58
2022-11-11T20:42:49.154Z,85.39
2022-11-11T20:45:17.643Z,85.18
2022-11-11T20:47:46.620Z,85.39
2022-11-11T20:50:15.373Z,84.94
2022-11-11T20:52:43.661Z,84.36
2022-11-11T20:55:11.975Z,84.20
2022-11-11T20:57:41.169Z,84.32
2022-11-11T21:00:09.760Z,83.87
2022-11-11T21:02:40.201Z,83.91
2022-11-11T21:05:10.171Z,84.10
2022-11-11T21:07:38.464Z,84.89
2022-11-11T21:10:06.426Z,85.27
2022-11-11T21:12:38.980Z,85.84
2022-11-11T21:15:07.201Z,86.30
2022-11-11T21:17:35.320Z,86.75
2022-11-11T21:20:02.720Z,87.23
2022-11-11T21:22:32.083Z,88.12
2022-11-11T21:24:59.926Z,88.34
2022-11-11T21:27:34.017Z,88.74
2022-11-11T21:30:02.970Z,88.97
2022-11-11T21:32:36.383Z,89.94
2022-11-11T21:35:12.107Z,91.07
2022-11-11T21:37:41.217Z,92.41
2022-11-11T21:40:10.444Z,92.97
2022-11-11T21:42:46.083Z,93.54
2022-11-11T21:45:30.302Z,93.93
2022-11-11T21:48:03.702Z,93.85
2022-11-11T21:50:34.955Z,94.08
2022-11-11T21:53:03.042Z,94.57
2022-11-11T21:55:32.111Z,93.92
2022-11-11T21:57:59.183Z,93.37
2022-11-11T22:00:31.342Z,94.33
2022-11-11T22:03:05.519Z,95.44
2022-11-11T22:05:33.621Z,95.75
2022-11-11T22:08:05.113Z,96.07
2022-11-11T22:10:32.352Z,95.45
2022-11-11T22:13:06.512Z,95.67
2022-11-11T22:15:38.841Z,94.67
2022-11-11T22:18:06.183Z,93.55
2022-11-11T22:20:47.469Z,93.39
2022-11-11T22:23:14.505Z,92.98
2022-11-11T22:25:47.427Z,93.23
2022-11-11T22:28:16.537Z,93.10
2022-11-11T22:30:51.727Z,93.65
2022-11-11T22:33:25.060Z,94.77
2022-11-11T22:35:53.101Z,95.02
2022-11-11T22:38:30.760Z,95.42
2022-11-11T22:41:31.921Z,96.23
2022-11-11T22:44:01.270Z,96.67
2022-11-11T22:46:30.185Z,97.11
2022-11-11T22:49:02.932Z,97.26
2022-11-11T22:51:54.272Z,96.67
2022-11-11T22:54:23.400Z,96.26
2022-11-11T22:56:51.531Z,97.68
2022-11-11T22:59:32.466Z,98.46
2022-11-11T23:01:59.657Z,99.07
2022-11-11T23:04:30.766Z,98.90
2022-11-11T23:07:00.959Z,99.42
2022-11-11T23:09:29.978Z,99.12
2022-11-11T23:11:57.072Z,99.22
2022-11-11T23:14:32.164Z,99.74
2022-11-11T23:16:59.270Z,100.00
2022-11-11T23:19:35.090Z,100.00
2022-11-11T23:22:08.740Z,100.00
2022-11-11T23:24:44.004Z,100.00
2022-11-11T23:27:11.111Z,100.00
2022-11-11T23:29:40.213Z,100.00
2022-11-11T23:32:07.220Z,100.00
2022-11-11T23:34:35.370Z,100.00
2022-11-11T23:37:07.784Z,100.00
2022-11-11T23:39:36.276Z,100.00
2022-11-11T23:42:03.404Z,100.00
2022-11-11T23:44:41.730Z,100.00
2022-11-11T23:47:10.837Z,100.00
2022-11-11T23:49:38.990Z,100.00
2022-11-11T23:52:06.101Z,100.00
2022-11-11T23:54:33.176Z,100.00
2022-11-11T23:57:01.261Z,100.00
2022-11-11T23:59:35.512Z,100.00
